RJTI(METAR)
07/17 16:00
METAR RJTI 170700Z 14005KT 9999 FEW025 27/24 Q1012 RMK 1CU025 A2991=
戻る
トップページへ戻る
IMOC Co,.Ltd.